createdAt,value
2024-03-05T00:01:00.959Z,65.15
2024-03-05T00:03:46.277Z,65.17
2024-03-05T00:06:18.117Z,65.15
2024-03-05T00:08:49.900Z,65.22
2024-03-05T00:11:22.616Z,65.34
2024-03-05T00:13:54.631Z,65.46
2024-03-05T00:16:26.502Z,65.51
2024-03-05T00:18:58.260Z,65.66
2024-03-05T00:21:30.016Z,65.65
2024-03-05T00:24:02.567Z,65.83
2024-03-05T00:26:34.507Z,65.69
2024-03-05T00:29:06.569Z,65.95
2024-03-05T00:31:41.137Z,65.84
2024-03-05T00:34:12.962Z,65.87
2024-03-05T00:36:45.070Z,65.83
2024-03-05T00:39:16.936Z,65.78
2024-03-05T00:41:49.510Z,65.98
2024-03-05T00:44:21.308Z,65.93
2024-03-05T00:46:54.063Z,66.08
2024-03-05T00:49:26.060Z,65.98
2024-03-05T00:51:57.859Z,65.94
2024-03-05T00:54:30.120Z,65.93
2024-03-05T00:57:01.907Z,66.02
2024-03-05T00:59:33.688Z,66.04
2024-03-05T01:02:05.920Z,66.21
2024-03-05T01:04:37.776Z,66.10
2024-03-05T01:07:10.893Z,66.07
2024-03-05T01:09:42.664Z,66.04
2024-03-05T01:12:14.929Z,66.08
2024-03-05T01:14:46.740Z,65.99
2024-03-05T01:17:18.594Z,66.07
2024-03-05T01:19:50.514Z,66.18
2024-03-05T01:22:22.516Z,66.30
2024-03-05T01:24:54.432Z,66.41
2024-03-05T01:27:26.227Z,66.42
2024-03-05T01:30:00.866Z,66.55
2024-03-05T01:32:33.718Z,66.50
2024-03-05T01:35:10.233Z,66.54
2024-03-05T01:37:42.701Z,66.49
2024-03-05T01:40:15.596Z,66.57
2024-03-05T01:42:47.405Z,66.73
2024-03-05T01:45:20.452Z,66.65
2024-03-05T01:47:52.623Z,66.69
2024-03-05T01:50:24.841Z,66.91
2024-03-05T01:52:56.985Z,66.83
2024-03-05T01:55:28.984Z,66.84
2024-03-05T01:58:05.142Z,66.83
2024-03-05T02:00:38.466Z,66.94
2024-03-05T02:03:12.435Z,66.84
2024-03-05T02:05:45.754Z,66.90
2024-03-05T02:08:19.201Z,66.89
2024-03-05T02:10:51.348Z,66.93
2024-03-05T02:13:23.510Z,67.02
2024-03-05T02:15:55.465Z,66.93
2024-03-05T02:18:27.413Z,66.85
2024-03-05T02:21:05.072Z,66.92
2024-03-05T02:23:36.829Z,66.89
2024-03-05T02:26:08.811Z,66.97
2024-03-05T02:28:41.606Z,66.83
2024-03-05T02:31:13.612Z,66.91
2024-03-05T02:33:46.092Z,66.90
2024-03-05T02:36:17.904Z,66.97
2024-03-05T02:38:50.009Z,67.18
2024-03-05T02:41:22.309Z,67.17
2024-03-05T02:43:54.314Z,67.08
2024-03-05T02:46:26.845Z,66.96
2024-03-05T02:48:58.704Z,66.94
2024-03-05T02:51:30.579Z,66.96
2024-03-05T02:54:02.365Z,66.95
2024-03-05T02:56:34.906Z,66.84
2024-03-05T02:59:06.819Z,66.82
2024-03-05T03:01:38.721Z,66.78
2024-03-05T03:04:11.444Z,66.90
2024-03-05T03:06:44.276Z,66.82
2024-03-05T03:09:16.058Z,66.91
2024-03-05T03:11:50.850Z,66.73
2024-03-05T03:14:22.699Z,66.87
2024-03-05T03:16:55.606Z,67.06
2024-03-05T03:19:27.463Z,67.08
2024-03-05T03:21:59.230Z,66.96
2024-03-05T03:24:31.028Z,67.11
2024-03-05T03:27:02.963Z,67.03
2024-03-05T03:29:35.249Z,67.00
2024-03-05T03:32:08.347Z,67.14
2024-03-05T03:34:42.481Z,67.16
2024-03-05T03:37:14.464Z,67.18
2024-03-05T03:39:47.213Z,67.23
2024-03-05T03:42:19.273Z,67.18
2024-03-05T03:44:51.663Z,67.29
2024-03-05T03:47:23.829Z,67.24
2024-03-05T03:49:55.729Z,67.28
2024-03-05T03:52:27.549Z,67.40
2024-03-05T03:54:59.397Z,67.52
2024-03-05T03:57:33.643Z,67.48
2024-03-05T04:00:09.034Z,67.40
2024-03-05T04:02:41.788Z,67.58
2024-03-05T04:05:14.603Z,67.49
2024-03-05T04:07:46.487Z,67.42
2024-03-05T04:10:18.750Z,67.44
2024-03-05T04:12:50.734Z,67.57
2024-03-05T04:15:22.917Z,67.73
2024-03-05T04:17:54.731Z,67.65
2024-03-05T04:20:26.545Z,67.66
2024-03-05T04:22:58.415Z,67.53
2024-03-05T04:25:35.953Z,67.70
2024-03-05T04:28:12.284Z,67.55
2024-03-05T04:30:47.436Z,67.72
2024-03-05T04:33:21.522Z,67.70
2024-03-05T04:35:53.349Z,67.78
2024-03-05T04:38:25.112Z,67.77
2024-03-05T04:40:57.002Z,67.77
2024-03-05T04:43:28.834Z,67.95
2024-03-05T04:46:00.909Z,68.12
2024-03-05T04:48:32.983Z,68.16
2024-03-05T04:51:04.785Z,67.88
2024-03-05T04:53:37.296Z,68.05
2024-03-05T04:56:09.553Z,68.03
2024-03-05T04:58:42.136Z,67.88
2024-03-05T05:01:14.069Z,67.85
2024-03-05T05:03:45.861Z,68.05
2024-03-05T05:06:17.613Z,67.89
2024-03-05T05:08:50.333Z,67.81
2024-03-05T05:11:22.892Z,68.02
2024-03-05T05:13:54.799Z,67.89
2024-03-05T05:16:27.798Z,67.85
2024-03-05T05:18:59.982Z,67.89
2024-03-05T05:21:31.766Z,68.01
2024-03-05T05:24:03.578Z,67.97
2024-03-05T05:26:35.539Z,67.91
2024-03-05T05:29:07.377Z,67.90
2024-03-05T05:31:39.239Z,68.04
2024-03-05T05:34:11.144Z,67.95
2024-03-05T05:36:42.964Z,68.12
2024-03-05T05:39:16.146Z,67.94
2024-03-05T05:41:48.161Z,68.09
2024-03-05T05:44:20.099Z,67.91
2024-03-05T05:46:52.056Z,68.03
2024-03-05T05:49:24.420Z,68.05
2024-03-05T05:51:56.319Z,68.03
2024-03-05T05:54:30.513Z,67.85
2024-03-05T05:57:03.144Z,67.96
2024-03-05T05:59:35.326Z,67.98
2024-03-05T06:02:10.030Z,68.12
2024-03-05T06:04:44.798Z,68.20
2024-03-05T06:07:16.754Z,68.07
2024-03-05T06:09:48.661Z,68.04
2024-03-05T06:12:23.936Z,68.06
2024-03-05T06:14:56.013Z,68.01
2024-03-05T06:17:27.998Z,68.03
2024-03-05T06:20:00.212Z,67.96
2024-03-05T06:22:34.690Z,68.04
2024-03-05T06:25:08.329Z,67.85
2024-03-05T06:27:40.608Z,67.76
2024-03-05T06:30:16.535Z,67.91
2024-03-05T06:32:49.817Z,67.74
2024-03-05T06:35:24.062Z,67.86
2024-03-05T06:37:56.056Z,67.76
2024-03-05T06:40:28.179Z,67.94
2024-03-05T06:43:06.648Z,67.94
2024-03-05T06:45:39.332Z,67.88
2024-03-05T06:48:17.553Z,67.74
2024-03-05T06:50:53.686Z,67.89
2024-03-05T06:53:57.910Z,67.96
2024-03-05T06:56:43.593Z,68.20
2024-03-05T06:59:15.372Z,68.12
2024-03-05T07:01:47.289Z,68.07
2024-03-05T07:04:19.145Z,68.19
2024-03-05T07:06:51.250Z,68.15
2024-03-05T07:09:28.348Z,68.12
2024-03-05T07:12:00.795Z,68.16
2024-03-05T07:14:33.193Z,68.05
2024-03-05T07:17:07.523Z,68.03
2024-03-05T07:19:39.402Z,68.19
2024-03-05T07:22:13.060Z,68.00
2024-03-05T07:24:44.834Z,67.96
2024-03-05T07:27:16.612Z,67.92
2024-03-05T07:29:48.444Z,68.02
2024-03-05T07:32:20.238Z,67.87
2024-03-05T07:34:52.096Z,67.99
2024-03-05T07:37:23.981Z,67.81
2024-03-05T07:39:55.769Z,67.86
2024-03-05T07:42:27.536Z,67.95
2024-03-05T07:44:59.321Z,67.90
2024-03-05T07:47:32.023Z,67.70
2024-03-05T07:50:04.057Z,67.63
2024-03-05T07:52:35.982Z,67.72
2024-03-05T07:55:11.100Z,67.63
2024-03-05T07:57:43.722Z,67.66
2024-03-05T08:00:18.488Z,67.61
2024-03-05T08:02:51.434Z,67.46
2024-03-05T08:05:24.475Z,67.35
2024-03-05T08:07:57.700Z,67.24
2024-03-05T08:10:30.326Z,67.25
2024-03-05T08:13:03.273Z,67.26
2024-03-05T08:15:35.235Z,67.09
2024-03-05T08:18:11.979Z,66.98
2024-03-05T08:20:43.839Z,67.14
2024-03-05T08:23:15.596Z,67.02
2024-03-05T08:25:50.340Z,66.77
2024-03-05T08:28:22.256Z,66.61
2024-03-05T08:30:55.050Z,66.28
2024-03-05T08:33:29.489Z,66.17
2024-03-05T08:36:01.273Z,65.75
2024-03-05T08:38:33.068Z,65.08
2024-03-05T08:41:05.257Z,64.60
2024-03-05T08:43:37.202Z,64.24
2024-03-05T08:46:09.631Z,64.15
2024-03-05T08:48:41.677Z,63.85
2024-03-05T08:51:13.647Z,63.96
2024-03-05T08:53:45.465Z,63.46
2024-03-05T08:56:17.272Z,63.35
2024-03-05T08:58:49.130Z,63.23
2024-03-05T09:01:21.043Z,63.02
2024-03-05T09:03:53.446Z,63.03
2024-03-05T09:06:25.228Z,63.02
2024-03-05T09:08:57.003Z,62.91
2024-03-05T09:11:29.030Z,62.96
2024-03-05T09:14:00.952Z,62.81
2024-03-05T09:16:33.954Z,62.88
2024-03-05T09:19:06.020Z,63.09
2024-03-05T09:21:37.775Z,63.02
2024-03-05T09:24:10.604Z,62.91
2024-03-05T09:26:42.381Z,62.86
2024-03-05T09:29:16.438Z,62.79
2024-03-05T09:31:48.550Z,62.95
2024-03-05T09:34:21.275Z,63.13
2024-03-05T09:36:53.146Z,63.37
2024-03-05T09:39:24.897Z,63.16
2024-03-05T09:41:56.924Z,63.12
2024-03-05T09:44:29.908Z,63.06
2024-03-05T09:47:03.291Z,62.82
2024-03-05T09:49:35.694Z,62.80
2024-03-05T09:52:09.095Z,62.89
2024-03-05T09:54:42.997Z,62.89
2024-03-05T09:57:15.594Z,62.94
2024-03-05T09:59:48.248Z,62.73
2024-03-05T10:02:20.532Z,62.91
2024-03-05T10:04:55.769Z,62.55
2024-03-05T10:07:29.044Z,62.37
2024-03-05T10:10:12.544Z,62.43
2024-03-05T10:12:45.213Z,61.85
2024-03-05T10:15:20.131Z,61.96
2024-03-05T10:17:54.384Z,61.71
2024-03-05T10:20:33.407Z,61.59
2024-03-05T10:23:09.192Z,61.80
2024-03-05T10:25:41.591Z,62.12
2024-03-05T10:28:14.208Z,61.98
2024-03-05T10:30:48.262Z,61.68
2024-03-05T10:33:24.743Z,61.45
2024-03-05T10:35:57.535Z,61.24
2024-03-05T10:38:29.259Z,60.99
2024-03-05T10:41:01.819Z,60.72
2024-03-05T10:43:37.004Z,60.31
2024-03-05T10:46:08.871Z,60.13
2024-03-05T10:48:42.699Z,60.53
2024-03-05T10:51:16.175Z,60.48
2024-03-05T10:53:49.943Z,60.62
2024-03-05T10:56:29.140Z,60.81
2024-03-05T10:59:23.918Z,61.01
2024-03-05T11:01:57.551Z,61.05
2024-03-05T11:04:33.196Z,61.10
2024-03-05T11:07:07.617Z,61.04
2024-03-05T11:09:43.208Z,60.82
2024-03-05T11:12:19.931Z,61.08
2024-03-05T11:14:51.715Z,60.89
2024-03-05T11:17:23.897Z,60.71
2024-03-05T11:19:57.834Z,59.81
2024-03-05T11:22:31.241Z,59.84
2024-03-05T11:25:07.125Z,59.89
2024-03-05T11:27:39.052Z,59.97
2024-03-05T11:30:16.983Z,58.60
2024-03-05T11:32:52.505Z,57.36
2024-03-05T11:35:27.313Z,56.48
2024-03-05T11:38:00.611Z,55.54
2024-03-05T11:40:35.469Z,54.55
2024-03-05T11:43:07.721Z,54.14
2024-03-05T11:45:50.356Z,54.18
2024-03-05T11:48:24.278Z,54.23
2024-03-05T11:50:56.854Z,54.28
2024-03-05T11:53:30.043Z,54.27
2024-03-05T11:56:09.761Z,54.22
2024-03-05T11:58:42.110Z,54.39
2024-03-05T12:01:16.949Z,54.22
2024-03-05T12:03:50.396Z,54.20
2024-03-05T12:06:22.336Z,54.25
2024-03-05T12:08:55.685Z,54.11
2024-03-05T12:11:27.714Z,54.12
2024-03-05T12:14:09.775Z,54.16
2024-03-05T12:16:41.662Z,54.06
2024-03-05T12:19:15.901Z,54.29
2024-03-05T12:21:47.815Z,54.28
2024-03-05T12:24:19.689Z,54.67
2024-03-05T12:26:51.764Z,54.75
2024-03-05T12:29:30.951Z,54.89
2024-03-05T12:32:06.459Z,55.11
2024-03-05T12:34:39.095Z,54.69
2024-03-05T12:37:12.765Z,54.41
2024-03-05T12:39:44.772Z,54.13
2024-03-05T12:42:24.714Z,53.94
2024-03-05T12:45:09.392Z,53.84
2024-03-05T12:47:42.506Z,54.01
2024-03-05T12:50:14.884Z,54.05
2024-03-05T12:52:46.815Z,54.12
2024-03-05T12:55:18.768Z,54.37
2024-03-05T12:57:50.711Z,54.34
2024-03-05T13:00:22.724Z,54.31
2024-03-05T13:02:54.688Z,54.30
2024-03-05T13:05:28.144Z,54.47
2024-03-05T13:08:00.335Z,54.45
2024-03-05T13:10:33.514Z,54.55
2024-03-05T13:13:05.759Z,54.56
2024-03-05T13:15:38.344Z,54.80
2024-03-05T13:18:10.409Z,54.92
2024-03-05T13:20:42.274Z,54.90
2024-03-05T13:23:14.094Z,55.07
2024-03-05T13:25:45.907Z,55.18
2024-03-05T13:28:17.716Z,55.30
2024-03-05T13:30:49.570Z,55.48
2024-03-05T13:33:35.160Z,55.62
2024-03-05T13:36:08.036Z,55.74
2024-03-05T13:38:39.883Z,55.70
2024-03-05T13:41:12.496Z,55.77
2024-03-05T13:43:44.343Z,55.74
2024-03-05T13:46:16.354Z,55.93
2024-03-05T13:48:50.528Z,56.07
2024-03-05T13:51:22.340Z,56.20
2024-03-05T13:53:54.362Z,56.34
2024-03-05T13:56:26.366Z,56.37
2024-03-05T13:58:59.043Z,56.45
2024-03-05T14:01:32.422Z,56.49
2024-03-05T14:04:09.634Z,56.67
2024-03-05T14:06:42.404Z,56.87
2024-03-05T14:09:15.089Z,56.80
2024-03-05T14:11:46.934Z,56.57
2024-03-05T14:14:21.309Z,56.32
2024-03-05T14:16:53.443Z,55.92
2024-03-05T14:19:25.262Z,55.68
2024-03-05T14:22:00.293Z,55.55
2024-03-05T14:24:32.120Z,55.50
2024-03-05T14:27:03.889Z,55.61
2024-03-05T14:29:35.711Z,55.53
2024-03-05T14:32:08.377Z,55.61
2024-03-05T14:34:43.446Z,55.82
2024-03-05T14:37:15.730Z,55.82
2024-03-05T14:39:47.499Z,55.60
2024-03-05T14:42:19.270Z,55.46
2024-03-05T14:44:51.046Z,55.41
2024-03-05T14:47:22.947Z,55.54
2024-03-05T14:49:54.772Z,55.54
2024-03-05T14:52:26.752Z,55.64
2024-03-05T14:55:01.473Z,55.69
2024-03-05T14:57:33.548Z,55.74
2024-03-05T15:00:06.000Z,55.88
2024-03-05T15:02:37.886Z,55.86
2024-03-05T15:05:12.110Z,55.98
2024-03-05T15:07:45.063Z,56.08
2024-03-05T15:10:20.461Z,56.21
2024-03-05T15:12:53.203Z,56.32
2024-03-05T15:15:25.905Z,56.59
2024-03-05T15:17:57.693Z,56.64
2024-03-05T15:20:29.576Z,56.68
2024-03-05T15:23:01.480Z,56.68
2024-03-05T15:25:35.900Z,56.79
2024-03-05T15:28:09.429Z,56.89
2024-03-05T15:30:41.302Z,57.02
2024-03-05T15:33:13.263Z,56.91
2024-03-05T15:35:45.246Z,57.15
2024-03-05T15:38:18.118Z,57.28
2024-03-05T15:40:50.087Z,57.35
2024-03-05T15:43:22.085Z,57.50
2024-03-05T15:45:54.097Z,57.39
2024-03-05T15:48:26.015Z,57.29
2024-03-05T15:50:57.980Z,57.31
2024-03-05T15:53:29.865Z,57.45
2024-03-05T15:56:13.056Z,57.32
2024-03-05T15:59:02.459Z,57.50
2024-03-05T16:01:35.146Z,57.73
2024-03-05T16:04:30.008Z,57.70
2024-03-05T16:07:02.775Z,57.75
2024-03-05T16:09:34.603Z,57.96
2024-03-05T16:12:07.671Z,57.83
2024-03-05T16:14:41.660Z,57.82
2024-03-05T16:17:14.266Z,57.89
2024-03-05T16:19:46.101Z,58.07
2024-03-05T16:22:17.985Z,58.22
2024-03-05T16:24:51.299Z,58.17
2024-03-05T16:27:24.029Z,58.16
2024-03-05T16:29:55.782Z,58.28
2024-03-05T16:32:27.975Z,58.30
2024-03-05T16:34:59.754Z,58.38
2024-03-05T16:37:33.549Z,58.44
2024-03-05T16:40:06.386Z,58.71
2024-03-05T16:42:40.612Z,58.74
2024-03-05T16:45:14.786Z,58.80
2024-03-05T16:47:47.755Z,58.69
2024-03-05T16:50:20.462Z,58.83
2024-03-05T16:52:53.433Z,58.91
2024-03-05T16:55:25.655Z,58.82
2024-03-05T16:58:00.126Z,58.80
2024-03-05T17:00:35.180Z,58.93
2024-03-05T17:03:12.349Z,58.97
2024-03-05T17:05:47.710Z,59.06
2024-03-05T17:08:22.108Z,59.16
2024-03-05T17:10:55.043Z,58.97
2024-03-05T17:13:30.948Z,59.01
2024-03-05T17:16:04.738Z,58.74
2024-03-05T17:18:36.694Z,58.88
2024-03-05T17:21:08.795Z,58.74
2024-03-05T17:23:43.792Z,58.80
2024-03-05T17:26:17.245Z,58.94
2024-03-05T17:28:49.260Z,59.09
2024-03-05T17:31:21.114Z,59.35
2024-03-05T17:33:53.608Z,59.60
2024-03-05T17:36:25.375Z,59.69
2024-03-05T17:38:57.128Z,59.69
2024-03-05T17:41:30.178Z,59.71
2024-03-05T17:44:02.028Z,59.75
2024-03-05T17:46:36.090Z,59.78
2024-03-05T17:49:09.223Z,59.95
2024-03-05T17:51:42.532Z,60.30
2024-03-05T17:54:14.299Z,60.46
2024-03-05T17:56:46.073Z,60.55
2024-03-05T17:59:17.851Z,60.83
2024-03-05T18:01:49.746Z,60.90
2024-03-05T18:04:21.766Z,61.23
2024-03-05T18:06:54.525Z,61.24
2024-03-05T18:09:26.876Z,61.20
2024-03-05T18:12:02.177Z,61.35
2024-03-05T18:14:34.043Z,61.49
2024-03-05T18:17:08.906Z,61.54
2024-03-05T18:19:41.035Z,61.64
2024-03-05T18:22:12.980Z,61.75
2024-03-05T18:24:44.749Z,61.98
2024-03-05T18:27:16.784Z,62.06
2024-03-05T18:29:48.590Z,62.10
2024-03-05T18:32:20.419Z,62.24
2024-03-05T18:34:52.911Z,62.48
2024-03-05T18:37:24.929Z,62.51
2024-03-05T18:39:57.078Z,62.64
2024-03-05T18:42:29.865Z,62.64
2024-03-05T18:45:05.467Z,62.96
2024-03-05T18:47:40.358Z,62.99
2024-03-05T18:50:15.642Z,63.15
2024-03-05T18:52:47.674Z,63.02
2024-03-05T18:55:19.773Z,63.18
2024-03-05T18:57:51.767Z,63.45
2024-03-05T19:00:24.633Z,63.41
2024-03-05T19:02:56.551Z,63.49
2024-03-05T19:05:28.540Z,63.76
2024-03-05T19:08:00.398Z,63.76
2024-03-05T19:10:32.837Z,63.90
2024-03-05T19:13:04.892Z,63.89
2024-03-05T19:15:38.099Z,63.93
2024-03-05T19:18:10.412Z,64.10
2024-03-05T19:20:43.635Z,64.00
2024-03-05T19:23:15.740Z,64.20
2024-03-05T19:25:47.659Z,64.26
2024-03-05T19:28:19.488Z,64.26
2024-03-05T19:30:52.163Z,64.19
2024-03-05T19:33:24.047Z,64.39
2024-03-05T19:35:55.968Z,64.25
2024-03-05T19:38:28.447Z,64.39
2024-03-05T19:41:00.537Z,64.42
2024-03-05T19:43:37.040Z,64.55
2024-03-05T19:46:08.109Z,64.51
2024-03-05T19:48:40.141Z,64.54
2024-03-05T19:51:14.016Z,64.39
2024-03-05T19:53:49.427Z,64.61
2024-03-05T19:56:23.161Z,64.70
2024-03-05T19:58:57.835Z,64.80
2024-03-05T20:01:29.736Z,64.88
2024-03-05T20:04:01.656Z,64.93
2024-03-05T20:06:33.553Z,65.03
2024-03-05T20:09:08.180Z,65.17
2024-03-05T20:11:40.459Z,65.15
2024-03-05T20:14:13.117Z,65.20
2024-03-05T20:16:47.857Z,65.21
2024-03-05T20:19:20.817Z,65.15
2024-03-05T20:21:53.084Z,65.23
2024-03-05T20:24:24.977Z,65.45
2024-03-05T20:26:59.905Z,65.51
2024-03-05T20:29:31.938Z,65.64
2024-03-05T20:32:07.242Z,65.74
2024-03-05T20:34:39.626Z,65.79
2024-03-05T20:37:11.464Z,65.70
2024-03-05T20:39:45.937Z,65.94
2024-03-05T20:42:17.826Z,65.81
2024-03-05T20:44:49.564Z,65.83
2024-03-05T20:47:21.325Z,65.83
2024-03-05T20:49:53.433Z,65.83
2024-03-05T20:52:26.000Z,65.71
2024-03-05T20:54:58.053Z,65.87
2024-03-05T20:57:29.806Z,65.95
2024-03-05T21:00:07.767Z,65.96
2024-03-05T21:02:40.126Z,65.96
2024-03-05T21:05:14.560Z,65.92
2024-03-05T21:07:46.671Z,65.92
2024-03-05T21:10:18.474Z,65.99
2024-03-05T21:12:50.396Z,65.75
2024-03-05T21:15:22.459Z,65.90
2024-03-05T21:17:54.617Z,65.96
2024-03-05T21:20:26.691Z,65.91
2024-03-05T21:22:58.529Z,65.95
2024-03-05T21:25:36.564Z,66.17
2024-03-05T21:28:16.050Z,66.21
2024-03-05T21:30:47.858Z,66.17
2024-03-05T21:33:19.652Z,66.18
2024-03-05T21:35:51.485Z,66.23
2024-03-05T21:38:23.244Z,66.10
2024-03-05T21:40:55.070Z,66.17
2024-03-05T21:43:26.914Z,66.20
2024-03-05T21:45:58.657Z,66.25
2024-03-05T21:48:30.644Z,66.13
2024-03-05T21:51:09.171Z,66.23
2024-03-05T21:53:44.658Z,66.25
2024-03-05T21:56:19.533Z,66.40
2024-03-05T21:58:51.606Z,66.39
2024-03-05T22:01:23.738Z,66.37
2024-03-05T22:03:55.480Z,66.41
2024-03-05T22:06:27.240Z,66.41
2024-03-05T22:09:09.751Z,66.38
2024-03-05T22:11:42.868Z,66.34
2024-03-05T22:14:14.999Z,66.33
2024-03-05T22:16:46.841Z,66.55
2024-03-05T22:19:18.726Z,66.51
2024-03-05T22:21:50.678Z,66.42
2024-03-05T22:24:22.450Z,66.48
2024-03-05T22:26:54.251Z,66.58
2024-03-05T22:29:26.667Z,66.64
2024-03-05T22:31:58.580Z,66.60
2024-03-05T22:34:32.194Z,66.76
2024-03-05T22:37:04.326Z,66.76
2024-03-05T22:39:36.094Z,66.66
2024-03-05T22:42:07.970Z,66.73
2024-03-05T22:44:40.561Z,66.68
2024-03-05T22:47:12.378Z,66.60
2024-03-05T22:49:46.509Z,66.71
2024-03-05T22:52:21.042Z,66.71
2024-03-05T22:54:52.905Z,66.83
2024-03-05T22:57:25.544Z,66.75
2024-03-05T22:59:57.480Z,66.76
2024-03-05T23:02:29.333Z,66.72
2024-03-05T23:05:01.162Z,66.68
2024-03-05T23:07:33.058Z,66.66
2024-03-05T23:10:06.549Z,66.78
2024-03-05T23:12:38.536Z,66.89
2024-03-05T23:15:16.087Z,67.02
2024-03-05T23:17:48.674Z,67.02
2024-03-05T23:20:20.695Z,66.86
2024-03-05T23:22:52.545Z,67.12
2024-03-05T23:25:24.463Z,67.11
2024-03-05T23:27:57.670Z,67.10
2024-03-05T23:30:30.532Z,66.87
2024-03-05T23:33:02.468Z,67.09
2024-03-05T23:35:34.319Z,67.10
2024-03-05T23:38:07.870Z,66.97
2024-03-05T23:40:39.911Z,66.94
2024-03-05T23:43:11.688Z,66.99
2024-03-05T23:45:43.424Z,66.90
2024-03-05T23:48:15.228Z,67.14
2024-03-05T23:50:47.057Z,67.42
2024-03-05T23:53:19.273Z,67.27
2024-03-05T23:55:51.308Z,67.18
2024-03-05T23:58:23.150Z,67.23
